Time;durP1;ratioP1;P1;durP2;ratioP2;P2;SDS_P1;SDS_P2;PMS_P1;PMS_P2;Temp;Humidity;BMP_temperature;BMP_pressure;BME280_temperature;BME280_humidity;BME280_pressure;Samples;Min_cycle;Max_cycle;Signal;HPM_P1;HPM_P2
2021/09/01 00:00:34;;;;;;;22.10;16.63;;;;;;;13.53;100.00;100230.69;5116362;28;20626;-73
2021/09/01 00:03:01;;;;;;;23.30;17.38;;;;;;;13.53;100.00;100229.81;5115657;28;20253;-72
2021/09/01 00:05:29;;;;;;;23.45;16.25;;;;;;;13.49;100.00;100226.41;5116135;28;20197;-72
2021/09/01 00:07:56;;;;;;;20.95;16.45;;;;;;;13.48;100.00;100224.69;5116087;28;20561;-74
2021/09/01 00:10:23;;;;;;;20.92;16.25;;;;;;;13.51;100.00;100223.63;5114715;28;20232;-72
2021/09/01 00:12:50;;;;;;;24.42;17.50;;;;;;;13.54;100.00;100234.25;5116037;28;20269;-73
2021/09/01 00:15:16;;;;;;;24.75;17.48;;;;;;;13.54;100.00;100231.53;5116250;28;20541;-72
2021/09/01 00:17:43;;;;;;;24.08;15.93;;;;;;;13.90;100.00;100235.69;5115564;28;20200;-72
2021/09/01 00:20:11;;;;;;;23.02;16.35;;;;;;;13.73;100.00;100229.47;5116055;28;20269;-73
2021/09/01 00:22:39;;;;;;;23.98;17.90;;;;;;;13.56;100.00;100233.19;5115537;28;20226;-72
2021/09/01 00:25:08;;;;;;;24.40;16.65;;;;;;;13.55;100.00;100236.88;5107973;28;20273;-73
2021/09/01 00:27:35;;;;;;;24.65;15.45;;;;;;;13.47;100.00;100235.59;5115467;28;20235;-73
2021/09/01 00:30:02;;;;;;;22.77;15.65;;;;;;;13.43;100.00;100239.44;5115393;28;20189;-73
2021/09/01 00:32:29;;;;;;;24.65;17.17;;;;;;;13.48;100.00;100243.63;5115727;28;20603;-72
2021/09/01 00:34:55;;;;;;;24.10;16.88;;;;;;;13.60;100.00;100238.44;5115118;28;20203;-72
2021/09/01 00:37:22;;;;;;;19.42;14.02;;;;;;;13.65;98.60;100242.59;5115287;28;20186;-72
2021/09/01 00:39:50;;;;;;;21.80;16.35;;;;;;;13.59;99.97;100242.09;5115603;28;20525;-72
2021/09/01 00:42:16;;;;;;;19.65;15.07;;;;;;;13.65;99.24;100239.03;5115410;28;20270;-71
2021/09/01 00:44:45;;;;;;;20.85;14.75;;;;;;;13.76;97.82;100236.53;5115212;28;20280;-73
2021/09/01 00:47:15;;;;;;;20.00;14.60;;;;;;;13.87;96.36;100230.47;5115153;28;20300;-72
2021/09/01 00:49:42;;;;;;;21.52;15.75;;;;;;;13.69;97.21;100236.03;5115591;28;20222;-72
2021/09/01 00:52:09;;;;;;;20.98;15.65;;;;;;;13.53;98.59;100230.69;5114862;28;20225;-72
2021/09/01 00:54:38;;;;;;;22.50;15.90;;;;;;;13.42;100.00;100229.59;5114977;28;20189;-73
2021/09/01 00:57:07;;;;;;;20.25;16.08;;;;;;;13.11;100.00;100234.97;5115149;28;20284;-73
2021/09/01 00:59:38;;;;;;;20.67;14.68;;;;;;;12.92;100.00;100237.84;5115336;28;20185;-74
2021/09/01 01:02:05;;;;;;;23.95;17.17;;;;;;;13.01;100.00;100233.75;5114352;28;20289;-73
2021/09/01 01:04:32;;;;;;;23.02;16.77;;;;;;;13.04;100.00;100230.84;5115046;28;20654;-73
2021/09/01 01:06:59;;;;;;;22.13;15.68;;;;;;;13.15;100.00;100233.78;5114540;28;20215;-73
2021/09/01 01:09:26;;;;;;;19.52;14.80;;;;;;;13.19;100.00;100223.69;5114596;28;20212;-73
2021/09/01 01:12:00;;;;;;;25.23;15.98;;;;;;;13.13;100.00;100226.75;5114817;28;20634;-73
2021/09/01 01:14:28;;;;;;;26.33;16.73;;;;;;;13.07;100.00;100228.00;5114986;28;20192;-73
2021/09/01 01:16:56;;;;;;;21.15;16.02;;;;;;;13.06;100.00;100238.88;5114776;28;20183;-73
2021/09/01 01:19:22;;;;;;;21.15;15.50;;;;;;;13.12;100.00;100234.00;5114276;28;20204;-73
2021/09/01 01:21:49;;;;;;;21.08;17.23;;;;;;;13.15;100.00;100233.78;5114705;28;20194;-73
2021/09/01 01:24:15;;;;;;;20.73;15.57;;;;;;;13.05;100.00;100232.59;5114694;28;20193;-73
2021/09/01 01:26:44;;;;;;;21.92;16.30;;;;;;;13.11;100.00;100237.66;5114526;28;20192;-73
2021/09/01 01:29:11;;;;;;;19.35;14.88;;;;;;;13.11;100.00;100240.38;5114295;28;20275;-73
2021/09/01 01:31:39;;;;;;;20.55;15.25;;;;;;;13.15;100.00;100239.19;5114679;28;20191;-74
2021/09/01 01:34:13;;;;;;;25.63;16.02;;;;;;;13.01;100.00;100238.28;5113975;28;20296;-73
2021/09/01 01:36:40;;;;;;;20.42;15.98;;;;;;;12.86;100.00;100240.03;5114580;28;20189;-74
2021/09/01 01:39:07;;;;;;;21.92;16.15;;;;;;;12.84;100.00;100244.66;5114280;28;20176;-73
2021/09/01 01:41:33;;;;;;;18.10;15.38;;;;;;;12.88;100.00;100238.97;5114131;28;20187;-73
2021/09/01 01:44:01;;;;;;;18.92;15.65;;;;;;;12.93;100.00;100234.19;5114078;28;20278;-73
2021/09/01 01:46:28;;;;;;;20.15;15.98;;;;;;;13.02;100.00;100242.72;5114177;28;20657;-73
2021/09/01 01:48:54;;;;;;;22.08;16.13;;;;;;;13.15;100.00;100246.44;5114264;28;20282;-73
2021/09/01 01:51:21;;;;;;;20.15;15.50;;;;;;;13.15;100.00;100241.03;5114128;28;20216;-73
2021/09/01 01:53:48;;;;;;;21.48;14.90;;;;;;;13.21;100.00;100242.53;5114618;28;20274;-73
2021/09/01 01:56:14;;;;;;;23.42;15.98;;;;;;;13.01;100.00;100241.84;5114274;28;20547;-73
2021/09/01 01:58:41;;;;;;;20.83;16.35;;;;;;;12.85;100.00;100241.00;5114319;28;20193;-73
2021/09/01 02:01:09;;;;;;;21.08;16.25;;;;;;;12.73;100.00;100237.19;5113949;28;20194;-72
2021/09/01 02:03:35;;;;;;;21.70;16.70;;;;;;;12.63;100.00;100234.09;5114461;28;20200;-73
2021/09/01 02:06:02;;;;;;;21.75;15.77;;;;;;;12.59;100.00;100237.06;5113825;28;20185;-73
2021/09/01 02:08:28;;;;;;;23.00;17.55;;;;;;;12.62;100.00;100239.63;5113760;28;20657;-72
2021/09/01 02:10:55;;;;;;;23.40;16.20;;;;;;;12.60;100.00;100236.13;5113675;28;20282;-72
2021/09/01 02:13:22;;;;;;;21.25;15.40;;;;;;;12.64;100.00;100238.56;5113821;28;20280;-72
2021/09/01 02:15:49;;;;;;;21.90;16.83;;;;;;;12.55;100.00;100240.88;5113727;28;20190;-72
2021/09/01 02:18:16;;;;;;;24.25;15.63;;;;;;;12.58;100.00;100238.91;5113885;28;20696;-72
2021/09/01 02:20:43;;;;;;;22.70;15.40;;;;;;;12.75;100.00;100235.22;5113466;28;20219;-73
2021/09/01 02:23:10;;;;;;;21.63;16.48;;;;;;;12.52;100.00;100239.22;5113758;28;20192;-73
2021/09/01 02:25:36;;;;;;;19.35;15.40;;;;;;;12.40;100.00;100229.13;5113636;28;20652;-73
2021/09/01 02:28:03;;;;;;;19.02;15.95;;;;;;;12.21;100.00;100237.34;5113457;28;20287;-73
2021/09/01 02:30:30;;;;;;;21.73;15.48;;;;;;;12.09;100.00;100244.31;5113888;28;20667;-73
2021/09/01 02:32:56;;;;;;;22.10;16.55;;;;;;;12.00;100.00;100242.09;5113729;28;20226;-72
2021/09/01 02:35:24;;;;;;;19.90;15.75;;;;;;;12.31;100.00;100233.22;5117702;28;20199;-72
2021/09/01 02:37:52;;;;;;;24.48;16.50;;;;;;;12.41;100.00;100237.13;5117488;28;20187;-74
2021/09/01 02:40:20;;;;;;;22.20;16.73;;;;;;;12.41;100.00;100236.25;5117833;28;20211;-73
2021/09/01 02:42:47;;;;;;;21.05;15.20;;;;;;;12.29;100.00;100240.53;5117605;28;20191;-73
2021/09/01 02:45:15;;;;;;;21.15;16.60;;;;;;;12.17;100.00;100246.59;5109540;28;20190;-73
2021/09/01 02:47:41;;;;;;;21.75;16.65;;;;;;;12.08;100.00;100254.22;5118038;28;20664;-73
2021/09/01 02:50:09;;;;;;;23.33;16.05;;;;;;;12.14;100.00;100252.16;5117456;28;20299;-73
2021/09/01 02:52:37;;;;;;;20.35;15.90;;;;;;;12.14;100.00;100249.44;5117612;28;20608;-74
2021/09/01 02:55:04;;;;;;;21.27;16.38;;;;;;;12.07;100.00;100257.00;5117233;28;20198;-72
2021/09/01 02:57:31;;;;;;;22.98;17.00;;;;;;;12.00;100.00;100261.84;5117619;28;20255;-72
2021/09/01 02:59:58;;;;;;;19.77;15.90;;;;;;;12.15;100.00;100264.72;5117278;28;20187;-73
2021/09/01 03:02:24;;;;;;;20.95;16.35;;;;;;;12.07;100.00;100257.91;5116744;28;20700;-72
2021/09/01 03:04:51;;;;;;;21.27;15.65;;;;;;;12.05;100.00;100267.00;5117844;28;20642;-72
2021/09/01 03:07:17;;;;;;;21.02;15.23;;;;;;;12.22;100.00;100268.81;5117181;28;20551;-73
2021/09/01 03:09:45;;;;;;;21.90;15.95;;;;;;;12.13;100.00;100264.78;5117186;28;20623;-73
2021/09/01 03:12:12;;;;;;;23.63;15.82;;;;;;;12.04;100.00;100270.69;5117225;28;20198;-73
2021/09/01 03:14:39;;;;;;;21.05;16.63;;;;;;;12.03;100.00;100269.81;5117321;28;20654;-73
2021/09/01 03:17:05;;;;;;;21.20;15.20;;;;;;;12.07;100.00;100263.31;5117329;28;20185;-73
2021/09/01 03:19:32;;;;;;;22.10;15.35;;;;;;;11.92;100.00;100265.91;5116853;28;20188;-73
2021/09/01 03:21:59;;;;;;;20.85;16.02;;;;;;;11.86;100.00;100259.88;5116984;28;20202;-73
2021/09/01 03:24:25;;;;;;;19.08;16.23;;;;;;;11.94;100.00;100259.50;5116598;28;20276;-73
2021/09/01 03:26:53;;;;;;;20.85;15.52;;;;;;;12.08;100.00;100259.63;5116621;28;20200;-74
2021/09/01 03:29:20;;;;;;;24.58;15.60;;;;;;;11.95;100.00;100265.78;5116795;28;20208;-74
2021/09/01 03:31:46;;;;;;;19.65;15.63;;;;;;;11.95;100.00;100263.94;5116521;28;20184;-73
2021/09/01 03:34:13;;;;;;;21.10;15.45;;;;;;;12.09;100.00;100257.78;5116760;28;20221;-74
2021/09/01 03:36:39;;;;;;;22.00;15.93;;;;;;;12.15;100.00;100257.47;5116546;28;20195;-74
2021/09/01 03:39:06;;;;;;;23.88;16.67;;;;;;;12.25;100.00;100252.44;5108653;28;20190;-74
2021/09/01 03:41:33;;;;;;;21.48;17.70;;;;;;;12.38;100.00;100252.66;5116187;28;20287;-74
2021/09/01 03:44:01;;;;;;;19.75;15.63;;;;;;;12.37;100.00;100250.88;5116684;28;20278;-74
2021/09/01 03:46:28;;;;;;;20.65;15.85;;;;;;;12.29;100.00;100262.97;5116754;28;20687;-73
2021/09/01 03:48:54;;;;;;;20.80;16.00;;;;;;;12.28;100.00;100255.84;5116403;28;20299;-75
2021/09/01 03:51:21;;;;;;;21.92;16.92;;;;;;;12.25;100.00;100266.81;5116918;28;20560;-74
2021/09/01 03:53:47;;;;;;;21.33;15.25;;;;;;;12.03;100.00;100256.31;5115869;28;20219;-72
2021/09/01 03:56:14;;;;;;;19.60;15.23;;;;;;;11.85;100.00;100260.84;5116298;28;20188;-73
2021/09/01 03:58:40;;;;;;;19.48;15.35;;;;;;;11.80;100.00;100265.59;5116472;28;20272;-73
2021/09/01 04:01:09;;;;;;;19.17;14.93;;;;;;;12.01;100.00;100260.06;5116275;28;20195;-73
2021/09/01 04:03:36;;;;;;;19.48;14.85;;;;;;;11.95;100.00;100266.63;5116305;28;20275;-73
2021/09/01 04:06:04;;;;;;;20.05;14.75;;;;;;;11.89;100.00;100267.84;5116531;28;20179;-73
2021/09/01 04:08:31;;;;;;;25.67;15.30;;;;;;;11.69;100.00;100260.78;5115522;28;20222;-73
2021/09/01 04:10:58;;;;;;;17.67;14.52;;;;;;;11.74;100.00;100275.84;5116151;28;20705;-73
2021/09/01 04:13:24;;;;;;;16.95;15.05;;;;;;;11.80;100.00;100262.91;5115902;28;20214;-73
2021/09/01 04:15:51;;;;;;;19.23;15.25;;;;;;;11.75;100.00;100281.16;5116086;28;20188;-73
2021/09/01 04:18:19;;;;;;;35.30;20.30;;;;;;;11.77;100.00;100272.97;5115822;28;20187;-73
2021/09/01 04:20:45;;;;;;;20.70;16.00;;;;;;;11.60;100.00;100274.75;5115991;28;20204;-73
2021/09/01 04:23:12;;;;;;;19.20;15.60;;;;;;;11.70;100.00;100269.72;5116120;28;20192;-73
2021/09/01 04:25:39;;;;;;;24.83;15.65;;;;;;;11.86;100.00;100285.97;5115531;28;20226;-73
2021/09/01 04:28:05;;;;;;;19.85;14.95;;;;;;;11.87;100.00;100290.41;5115937;28;20204;-73
2021/09/01 04:30:32;;;;;;;21.60;15.55;;;;;;;11.87;100.00;100291.34;5116046;28;20286;-74
2021/09/01 04:32:58;;;;;;;17.45;15.52;;;;;;;11.85;100.00;100295.91;5116522;28;20482;-72
2021/09/01 04:35:27;;;;;;;19.05;14.18;;;;;;;11.75;100.00;100297.31;5115500;28;20548;-74
2021/09/01 04:37:53;;;;;;;19.05;15.65;;;;;;;11.79;100.00;100296.22;5107442;28;20601;-72
2021/09/01 04:40:20;;;;;;;19.02;15.00;;;;;;;11.65;100.00;100290.69;5115047;28;20197;-74
2021/09/01 04:42:47;;;;;;;19.52;14.63;;;;;;;11.86;100.00;100289.53;5115150;28;20282;-74
2021/09/01 04:45:13;;;;;;;17.60;15.70;;;;;;;11.81;100.00;100288.94;5114879;28;20191;-73
2021/09/01 04:47:40;;;;;;;17.50;14.20;;;;;;;11.78;100.00;100290.91;5115337;28;20278;-74
2021/09/01 04:50:07;;;;;;;18.25;14.88;;;;;;;11.69;100.00;100282.34;5115151;28;20272;-73
2021/09/01 04:52:35;;;;;;;22.08;15.13;;;;;;;11.80;100.00;100284.50;5114743;28;20202;-74
2021/09/01 04:55:02;;;;;;;18.52;14.98;;;;;;;11.81;100.00;100293.47;5114980;28;20551;-73
2021/09/01 04:57:28;;;;;;;20.00;14.98;;;;;;;12.01;100.00;100297.84;5114624;28;20282;-73
2021/09/01 04:59:55;;;;;;;19.98;16.30;;;;;;;11.95;100.00;100295.47;5114669;28;20180;-73
2021/09/01 05:02:21;;;;;;;22.42;16.75;;;;;;;12.06;100.00;100299.31;5114673;28;20252;-74
2021/09/01 05:04:48;;;;;;;19.98;17.23;;;;;;;12.04;100.00;100298.53;5115084;28;20270;-74
2021/09/01 05:07:15;;;;;;;18.60;14.25;;;;;;;12.00;100.00;100301.47;5114535;28;20199;-72
2021/09/01 05:09:43;;;;;;;20.73;15.52;;;;;;;12.05;99.84;100302.09;5114801;28;20205;-73
2021/09/01 05:12:10;;;;;;;21.25;15.70;;;;;;;12.10;100.00;100310.84;5114498;28;20202;-72
2021/09/01 05:14:37;;;;;;;20.95;15.18;;;;;;;11.98;99.92;100296.16;5114430;28;20193;-72
2021/09/01 05:17:04;;;;;;;20.98;16.65;;;;;;;12.03;100.00;100298.59;5114343;28;20471;-74
2021/09/01 05:19:31;;;;;;;19.42;16.05;;;;;;;12.20;99.15;100304.00;5114306;28;20184;-73
2021/09/01 05:22:01;;;;;;;19.20;15.50;;;;;;;12.29;98.23;100299.94;5114362;28;20240;-73
2021/09/01 05:24:39;;;;;;;21.55;16.20;;;;;;;12.05;100.00;100300.31;5114336;28;20685;-73
2021/09/01 05:27:11;;;;;;;22.35;15.00;;;;;;;12.14;100.00;100301.59;5113121;28;20187;-74
2021/09/01 05:29:43;;;;;;;23.30;15.20;;;;;;;12.23;99.05;100306.53;5105382;28;20283;-73
2021/09/01 05:32:13;;;;;;;19.60;16.13;;;;;;;12.20;99.71;100309.38;5113466;28;20188;-73
2021/09/01 05:34:42;;;;;;;22.25;17.20;;;;;;;12.22;98.85;100317.41;5114248;28;20203;-74
2021/09/01 05:37:11;;;;;;;22.52;16.42;;;;;;;12.17;100.00;100304.16;5108545;28;20196;-73
2021/09/01 05:39:39;;;;;;;20.52;16.02;;;;;;;12.21;100.00;100315.66;5093590;28;20234;-74
2021/09/01 05:42:06;;;;;;;26.63;17.52;;;;;;;12.29;100.00;100306.19;5093674;28;20268;-73
2021/09/01 05:44:35;;;;;;;20.30;16.40;;;;;;;12.29;99.59;100305.31;5093976;28;20591;-73
2021/09/01 05:47:03;;;;;;;23.30;17.35;;;;;;;12.42;99.58;100308.25;5093628;28;20288;-73
2021/09/01 05:49:30;;;;;;;20.42;16.83;;;;;;;12.55;97.65;100306.63;5107595;28;20630;-74
2021/09/01 05:51:57;;;;;;;22.10;16.50;;;;;;;12.63;97.15;100295.38;5112011;28;20275;-73
2021/09/01 05:54:24;;;;;;;21.63;16.92;;;;;;;12.73;95.65;100299.31;5114139;28;20668;-73
2021/09/01 05:56:54;;;;;;;20.38;16.90;;;;;;;12.60;97.09;100301.81;5113999;28;20184;-73
2021/09/01 05:59:24;;;;;;;21.90;16.73;;;;;;;12.65;97.49;100301.56;5114120;28;20205;-73
2021/09/01 06:01:57;;;;;;;22.60;16.83;;;;;;;12.73;96.77;100304.72;5113417;28;20325;-74
2021/09/01 06:04:25;;;;;;;21.67;16.73;;;;;;;12.65;97.27;100301.56;5113451;28;20284;-73
2021/09/01 06:06:54;;;;;;;18.50;15.77;;;;;;;12.97;95.81;100305.16;5113143;28;20194;-73
2021/09/01 06:09:21;;;;;;;18.75;16.10;;;;;;;12.93;95.69;100309.00;5113112;28;20326;-74
2021/09/01 06:11:53;;;;;;;23.38;18.50;;;;;;;12.98;95.40;100297.91;5114304;28;20215;-74
2021/09/01 06:14:19;;;;;;;20.25;17.17;;;;;;;13.19;94.02;100303.94;5113933;28;20636;-73
2021/09/01 06:16:46;;;;;;;31.50;17.77;;;;;;;13.06;93.24;100301.06;5113194;28;20188;-74
2021/09/01 06:19:14;;;;;;;22.17;17.17;;;;;;;13.07;93.32;100306.38;5113875;28;20609;-72
2021/09/01 06:21:41;;;;;;;23.63;16.65;;;;;;;13.03;92.38;100302.13;5113671;28;20674;-73
2021/09/01 06:24:07;;;;;;;20.15;16.27;;;;;;;13.00;93.94;100302.31;5113658;28;20585;-73
2021/09/01 06:26:34;;;;;;;21.98;16.95;;;;;;;13.21;92.97;100308.28;5113182;28;20187;-73
2021/09/01 06:29:00;;;;;;;21.20;16.63;;;;;;;13.31;92.58;100308.66;5112929;28;20207;-73
2021/09/01 06:31:32;;;;;;;19.70;15.93;;;;;;;13.93;90.60;100312.19;5112445;28;20283;-74
2021/09/01 06:33:58;;;;;;;21.10;16.30;;;;;;;14.86;84.95;100311.88;5113466;28;20189;-73
2021/09/01 06:36:26;;;;;;;18.98;15.65;;;;;;;15.84;78.08;100310.75;5112977;28;20191;-73
2021/09/01 06:38:53;;;;;;;19.50;16.67;;;;;;;16.04;75.76;100314.81;5112605;28;20194;-74
2021/09/01 06:41:20;;;;;;;16.80;14.85;;;;;;;15.74;76.21;100315.97;5113232;28;20643;-74
2021/09/01 06:43:46;;;;;;;24.17;16.92;;;;;;;15.21;79.04;100313.13;5113097;28;20290;-73
2021/09/01 06:46:13;;;;;;;19.35;15.35;;;;;;;14.93;81.72;100318.63;5113134;28;20605;-73
2021/09/01 06:48:39;;;;;;;21.67;16.77;;;;;;;15.23;80.44;100313.03;5113122;28;20216;-74
2021/09/01 06:51:06;;;;;;;20.83;17.10;;;;;;;15.25;80.64;100323.78;5112885;28;20196;-75
2021/09/01 06:53:34;;;;;;;20.35;16.70;;;;;;;15.20;81.40;100321.38;5113540;28;20218;-73
2021/09/01 06:56:01;;;;;;;18.80;16.60;;;;;;;15.22;81.80;100322.16;5113021;28;20190;-73
2021/09/01 06:58:28;;;;;;;21.17;18.02;;;;;;;15.17;82.31;100330.59;5112540;28;20285;-73
2021/09/01 07:00:54;;;;;;;19.90;16.67;;;;;;;15.19;82.66;100325.91;5112564;28;20187;-73
2021/09/01 07:03:21;;;;;;;22.25;17.55;;;;;;;15.27;82.91;100333.56;5112012;28;20257;-73
2021/09/01 07:05:48;;;;;;;20.77;16.80;;;;;;;15.43;81.92;100328.00;5113008;28;20218;-73
2021/09/01 07:08:16;;;;;;;19.98;16.50;;;;;;;15.54;81.36;100330.00;5112366;28;20184;-73
2021/09/01 07:10:46;;;;;;;20.77;17.30;;;;;;;15.46;82.19;100322.34;5112769;28;20245;-73
2021/09/01 07:13:13;;;;;;;19.90;17.45;;;;;;;15.58;82.71;100320.66;5112762;28;20270;-72
2021/09/01 07:15:41;;;;;;;21.05;16.08;;;;;;;15.73;81.27;100324.22;5112707;28;20602;-72
2021/09/01 07:18:08;;;;;;;19.05;17.05;;;;;;;15.68;82.23;100320.91;5112018;28;20226;-73
2021/09/01 07:20:35;;;;;;;17.00;14.98;;;;;;;15.89;80.91;100327.59;5109400;28;20275;-74
2021/09/01 07:23:01;;;;;;;19.05;15.25;;;;;;;15.99;79.93;100330.59;5116481;28;20191;-74
2021/09/01 07:25:28;;;;;;;18.85;14.90;;;;;;;16.04;79.77;100329.28;5116101;28;20190;-73
2021/09/01 07:27:56;;;;;;;18.55;14.82;;;;;;;16.15;80.01;100341.25;5115285;28;20275;-73
2021/09/01 07:30:23;;;;;;;21.02;15.32;;;;;;;16.39;79.14;100336.81;5115945;28;20226;-73
2021/09/01 07:32:50;;;;;;;17.20;15.00;;;;;;;16.55;78.56;100338.41;5116110;28;20279;-73
2021/09/01 07:35:16;;;;;;;20.95;15.35;;;;;;;16.48;79.19;100337.97;5115949;28;20616;-73
2021/09/01 07:37:44;;;;;;;17.67;14.70;;;;;;;16.54;79.32;100342.13;5115997;28;20187;-73
2021/09/01 07:40:12;;;;;;;17.63;14.23;;;;;;;16.67;79.35;100343.00;5115908;28;20194;-72
2021/09/01 07:42:39;;;;;;;19.92;14.52;;;;;;;16.91;78.27;100332.22;5115607;28;20231;-75
2021/09/01 07:45:08;;;;;;;20.90;14.63;;;;;;;17.04;77.95;100340.34;5116220;28;20237;-73
2021/09/01 07:47:34;;;;;;;16.83;13.82;;;;;;;16.99;78.23;100342.56;5116303;28;20584;-73
2021/09/01 07:50:01;;;;;;;16.33;14.40;;;;;;;17.21;77.39;100341.84;5116473;28;20203;-74
2021/09/01 07:52:27;;;;;;;17.63;12.90;;;;;;;17.55;75.57;100337.47;5115426;28;20198;-73
2021/09/01 07:54:54;;;;;;;14.88;12.95;;;;;;;17.61;75.37;100342.44;5116111;28;20688;-75
2021/09/01 07:57:21;;;;;;;20.33;15.48;;;;;;;17.79;74.58;100342.03;5116427;28;20258;-74
2021/09/01 07:59:47;;;;;;;15.07;13.05;;;;;;;17.83;74.55;100358.03;5115971;28;20283;-74
2021/09/01 08:02:15;;;;;;;14.82;12.07;;;;;;;18.02;73.71;100348.44;5115662;28;20232;-74
2021/09/01 08:04:42;;;;;;;15.88;11.88;;;;;;;17.82;76.00;100356.31;5115860;28;20713;-74
2021/09/01 08:07:08;;;;;;;16.85;10.60;;;;;;;17.96;75.14;100352.53;5095943;28;20650;-72
2021/09/01 08:09:35;;;;;;;16.05;10.27;;;;;;;17.94;75.93;100356.38;5100534;28;20206;-74
2021/09/01 08:12:01;;;;;;;12.23;9.63;;;;;;;18.07;75.68;100358.03;5115410;28;20208;-73
2021/09/01 08:14:28;;;;;;;11.38;10.25;;;;;;;18.49;74.16;100365.69;5114633;28;20280;-74
2021/09/01 08:16:55;;;;;;;12.23;10.18;;;;;;;18.10;74.72;100360.50;5114525;28;20228;-74
2021/09/01 08:19:23;;;;;;;17.13;10.95;;;;;;;18.34;74.54;100362.31;5114423;28;20287;-74
2021/09/01 08:21:49;;;;;;;10.68;9.07;;;;;;;18.47;73.60;100357.59;5114374;28;20197;-74
2021/09/01 08:24:16;;;;;;;12.18;10.13;;;;;;;18.66;73.33;100358.91;5115150;28;20226;-74
2021/09/01 08:26:43;;;;;;;15.77;10.95;;;;;;;18.79;72.37;100367.88;5115056;28;20281;-74
2021/09/01 08:29:09;;;;;;;18.80;10.55;;;;;;;19.04;71.45;100357.66;5114294;28;20194;-74
2021/09/01 08:31:36;;;;;;;17.40;10.32;;;;;;;19.07;71.24;100362.91;5092908;28;20273;-74
2021/09/01 08:34:02;;;;;;;12.07;10.02;;;;;;;19.10;71.03;100366.22;5094187;28;20246;-74
2021/09/01 08:36:30;;;;;;;14.23;10.13;;;;;;;19.18;70.89;100360.16;5094177;28;20671;-73
2021/09/01 08:38:57;;;;;;;16.50;10.10;;;;;;;19.13;70.86;100363.25;5093882;28;20256;-74
2021/09/01 08:41:24;;;;;;;12.27;9.70;;;;;;;19.25;70.80;100361.38;5094050;28;20186;-73
2021/09/01 08:43:51;;;;;;;13.80;9.63;;;;;;;19.39;70.20;100357.50;5094123;28;20208;-74
2021/09/01 08:46:18;;;;;;;15.73;9.45;;;;;;;19.56;69.54;100361.59;5107496;28;20289;-74
2021/09/01 08:48:45;;;;;;;14.05;9.73;;;;;;;19.74;68.36;100370.09;5114452;28;20225;-74
2021/09/01 08:51:11;;;;;;;11.52;9.35;;;;;;;19.74;68.62;100356.44;5113342;28;20213;-74
2021/09/01 08:53:40;;;;;;;12.02;9.43;;;;;;;19.83;67.79;100352.06;5113730;28;20631;-74
2021/09/01 08:56:06;;;;;;;13.05;8.80;;;;;;;19.94;67.65;100360.22;5113395;28;20272;-72
2021/09/01 08:58:33;;;;;;;12.30;8.77;;;;;;;20.12;66.96;100363.25;5113548;28;20249;-73
2021/09/01 09:01:00;;;;;;;12.77;8.47;;;;;;;20.07;66.42;100357.31;5113201;28;20275;-73
2021/09/01 09:03:28;;;;;;;11.93;9.15;;;;;;;20.03;66.26;100356.69;5113793;28;20727;-72
2021/09/01 09:06:02;;;;;;;13.83;8.77;;;;;;;20.06;66.79;100363.75;5113633;28;20232;-72
2021/09/01 09:08:31;;;;;;;13.55;9.32;;;;;;;20.20;66.24;100358.00;5113661;28;20971;-73
2021/09/01 09:11:00;;;;;;;12.13;8.83;;;;;;;19.95;67.69;100359.22;5113340;28;20217;-73
2021/09/01 09:13:30;;;;;;;11.20;9.20;;;;;;;20.06;67.53;100350.97;5113865;28;20431;-73
2021/09/01 09:16:04;;;;;;;13.03;9.80;;;;;;;20.35;66.45;100342.09;5113128;28;20483;-73
2021/09/01 09:18:32;;;;;;;10.27;7.77;;;;;;;20.45;65.44;100344.91;5113077;28;20429;-74
2021/09/01 09:21:15;;;;;;;10.13;7.50;;;;;;;20.31;65.19;100344.25;5112190;28;20780;-74
2021/09/01 09:23:42;;;;;;;9.98;8.50;;;;;;;20.61;64.62;100348.06;5112711;28;20445;-73
2021/09/01 09:26:27;;;;;;;13.10;8.47;;;;;;;20.82;63.63;100339.81;5112687;28;20207;-74
2021/09/01 09:29:11;;;;;;;11.57;8.93;;;;;;;20.76;63.94;100343.09;5112688;28;20461;-73
2021/09/01 09:31:39;;;;;;;10.83;9.63;;;;;;;20.79;62.97;100337.34;5109912;28;20552;-73
2021/09/01 09:34:07;;;;;;;10.27;8.40;;;;;;;20.89;62.97;100340.13;5113335;28;20476;-74
2021/09/01 09:36:34;;;;;;;10.70;8.37;;;;;;;20.68;63.61;100340.19;5113061;28;20475;-73
2021/09/01 09:39:01;;;;;;;16.10;9.40;;;;;;;20.69;63.44;100337.31;5112258;28;20437;-72
2021/09/01 09:41:29;;;;;;;11.00;8.53;;;;;;;21.00;63.06;100343.63;5112844;28;20889;-74
2021/09/01 09:43:59;;;;;;;10.67;9.03;;;;;;;20.96;63.26;100333.97;5111973;28;20426;-73
2021/09/01 09:46:26;;;;;;;14.40;9.80;;;;;;;21.08;61.80;100332.00;5111723;28;20475;-75
2021/09/01 09:48:54;;;;;;;10.23;8.17;;;;;;;20.84;61.25;100324.09;5113207;28;20589;-72
2021/09/01 09:51:36;;;;;;;10.50;7.77;;;;;;;20.95;60.91;100329.50;5112010;28;20484;-73
2021/09/01 09:54:15;;;;;;;10.33;7.30;;;;;;;21.03;60.25;100320.59;5113044;28;20763;-74
2021/09/01 09:56:44;;;;;;;12.03;8.37;;;;;;;21.15;60.22;100326.81;5112607;28;20469;-73
2021/09/01 09:59:15;;;;;;;8.10;7.10;;;;;;;21.01;60.38;100336.28;5112856;28;20437;-73
2021/09/01 10:01:41;;;;;;;8.80;7.90;;;;;;;21.14;60.71;100331.44;5112823;28;20966;-74
2021/09/01 10:04:08;;;;;;;10.30;7.57;;;;;;;21.47;60.28;100331.25;5112147;28;20917;-74
2021/09/01 10:06:35;;;;;;;10.60;8.37;;;;;;;21.48;59.73;100335.72;5112022;28;20491;-72
2021/09/01 10:09:03;;;;;;;9.97;8.63;;;;;;;21.28;60.15;100330.19;5112778;28;20492;-73
2021/09/01 10:11:32;;;;;;;12.30;8.90;;;;;;;21.32;59.29;100337.09;5111775;28;20511;-73
2021/09/01 10:14:02;;;;;;;10.33;8.10;;;;;;;21.33;59.25;100330.63;5112162;28;20985;-73
2021/09/01 10:16:33;;;;;;;8.87;7.57;;;;;;;21.30;60.28;100340.97;5112585;28;20759;-73
2021/09/01 10:19:06;;;;;;;8.67;7.57;;;;;;;21.53;59.30;100322.47;5112681;28;20492;-72
2021/09/01 10:21:34;;;;;;;12.87;9.10;;;;;;;21.87;58.42;100325.66;5112231;28;20424;-74
2021/09/01 10:24:17;;;;;;;10.73;7.50;;;;;;;22.10;57.88;100315.25;5112650;28;20749;-74
2021/09/01 10:26:58;;;;;;;9.77;8.40;;;;;;;22.31;57.31;100322.47;5112436;28;20429;-74
2021/09/01 10:29:40;;;;;;;8.73;7.17;;;;;;;22.08;56.81;100320.88;5111801;28;20805;-73
2021/09/01 10:32:22;;;;;;;9.43;7.90;;;;;;;22.33;56.59;100312.22;5111834;28;20553;-75
2021/09/01 10:34:49;;;;;;;8.67;7.70;;;;;;;21.82;57.94;100312.41;5110919;28;20480;-73
2021/09/01 10:37:37;;;;;;;10.87;7.87;;;;;;;22.34;55.65;100313.94;5110649;28;20933;-73
2021/09/01 10:40:05;;;;;;;10.03;7.00;;;;;;;22.05;57.29;100309.34;5107826;28;20440;-74
2021/09/01 10:42:38;;;;;;;10.87;7.70;;;;;;;21.55;58.38;100317.69;5105152;28;20452;-73
2021/09/01 10:45:17;;;;;;;9.53;7.67;;;;;;;21.54;58.74;100316.84;5103336;28;20814;-74
2021/09/01 10:48:14;;;;;;;9.03;7.97;;;;;;;21.93;56.91;100324.22;5099608;28;20417;-73
2021/09/01 10:50:43;;;;;;;9.53;8.60;;;;;;;21.99;56.63;100318.16;5112218;28;20969;-73
2021/09/01 10:53:18;;;;;;;8.93;7.73;;;;;;;22.41;55.83;100323.31;5112313;28;20783;-74
2021/09/01 10:55:50;;;;;;;9.83;8.83;;;;;;;22.69;55.80;100307.78;5115886;28;20897;-73
2021/09/01 10:58:19;;;;;;;10.13;8.70;;;;;;;22.59;56.53;100317.91;5116514;28;20436;-73
2021/09/01 11:00:55;;;;;;;7.30;6.60;;;;;;;23.14;54.71;100312.53;5116363;28;20890;-74
2021/09/01 11:03:30;;;;;;;10.40;7.73;;;;;;;23.11;53.34;100315.59;5116206;28;20890;-74
2021/09/01 11:06:09;;;;;;;9.70;7.80;;;;;;;23.51;52.71;100323.41;5116590;28;20782;-74
2021/09/01 11:08:36;;;;;;;9.87;7.00;;;;;;;;;;5116138;28;21400;-73
2021/09/01 11:11:03;;;;;;;10.10;7.40;;;;;;;22.67;53.43;100332.63;5116005;28;20552;-74
2021/09/01 11:13:42;;;;;;;7.80;6.70;;;;;;;22.19;55.11;100319.00;5116512;28;20538;-72